sensor_id;sensor_type;location;lat;lon;timestamp;temperature;humidity
1405;DHT22;697;51.114;6.542;2023-11-21T00:02:26;10.60;99.90
1405;DHT22;697;51.114;6.542;2023-11-21T00:04:53;10.50;99.90
1405;DHT22;697;51.114;6.542;2023-11-21T00:07:20;10.50;99.90
1405;DHT22;697;51.114;6.542;2023-11-21T00:09:48;10.50;99.90
1405;DHT22;697;51.114;6.542;2023-11-21T00:12:14;10.60;99.90
1405;DHT22;697;51.114;6.542;2023-11-21T00:14:45;10.60;99.90
1405;DHT22;697;51.114;6.542;2023-11-21T00:17:12;10.70;99.90
1405;DHT22;697;51.114;6.542;2023-11-21T00:19:39;10.70;99.90
1405;DHT22;697;51.114;6.542;2023-11-21T00:22:05;10.70;99.90
1405;DHT22;697;51.114;6.542;2023-11-21T00:24:32;10.70;99.90
1405;DHT22;697;51.114;6.542;2023-11-21T00:26:59;10.70;99.90
1405;DHT22;697;51.114;6.542;2023-11-21T00:29:26;10.80;99.90
1405;DHT22;697;51.114;6.542;2023-11-21T00:31:54;10.80;99.90
1405;DHT22;697;51.114;6.542;2023-11-21T00:34:21;10.80;99.90
1405;DHT22;697;51.114;6.542;2023-11-21T00:36:48;10.80;99.90
1405;DHT22;697;51.114;6.542;2023-11-21T00:39:15;10.80;99.90
1405;DHT22;697;51.114;6.542;2023-11-21T00:41:42;10.70;99.90
1405;DHT22;697;51.114;6.542;2023-11-21T00:44:11;10.70;99.90
1405;DHT22;697;51.114;6.542;2023-11-21T00:46:38;10.70;99.90
1405;DHT22;697;51.114;6.542;2023-11-21T00:49:08;10.70;99.90
1405;DHT22;697;51.114;6.542;2023-11-21T00:51:36;10.70;99.90
1405;DHT22;697;51.114;6.542;2023-11-21T00:54:03;10.60;99.90
1405;DHT22;697;51.114;6.542;2023-11-21T00:56:32;10.60;99.90
1405;DHT22;697;51.114;6.542;2023-11-21T00:58:59;10.60;99.90
1405;DHT22;697;51.114;6.542;2023-11-21T01:01:26;10.60;99.90
1405;DHT22;697;51.114;6.542;2023-11-21T01:03:52;10.50;99.90
1405;DHT22;697;51.114;6.542;2023-11-21T01:06:20;10.50;99.90
1405;DHT22;697;51.114;6.542;2023-11-21T01:08:47;10.50;99.90
1405;DHT22;697;51.114;6.542;2023-11-21T01:11:14;10.50;99.90
1405;DHT22;697;51.114;6.542;2023-11-21T01:13:41;10.50;99.90
1405;DHT22;697;51.114;6.542;2023-11-21T01:16:10;10.50;99.90
1405;DHT22;697;51.114;6.542;2023-11-21T01:18:37;10.40;99.90
1405;DHT22;697;51.114;6.542;2023-11-21T01:21:04;10.40;99.90
1405;DHT22;697;51.114;6.542;2023-11-21T01:23:34;10.40;99.90
1405;DHT22;697;51.114;6.542;2023-11-21T01:26:07;10.40;99.90
1405;DHT22;697;51.114;6.542;2023-11-21T01:28:34;10.40;99.90
1405;DHT22;697;51.114;6.542;2023-11-21T01:31:01;10.40;99.90
1405;DHT22;697;51.114;6.542;2023-11-21T01:33:28;10.30;99.90
1405;DHT22;697;51.114;6.542;2023-11-21T01:35:55;10.30;99.90
1405;DHT22;697;51.114;6.542;2023-11-21T01:38:22;10.20;99.90
1405;DHT22;697;51.114;6.542;2023-11-21T01:40:50;10.20;99.90
1405;DHT22;697;51.114;6.542;2023-11-21T01:43:16;10.10;99.90
1405;DHT22;697;51.114;6.542;2023-11-21T01:45:43;10.10;99.90
1405;DHT22;697;51.114;6.542;2023-11-21T01:48:13;10.10;99.90
1405;DHT22;697;51.114;6.542;2023-11-21T01:50:42;10.10;99.90
1405;DHT22;697;51.114;6.542;2023-11-21T01:53:11;10.00;99.90
1405;DHT22;697;51.114;6.542;2023-11-21T01:55:40;10.10;99.90
1405;DHT22;697;51.114;6.542;2023-11-21T01:58:09;10.00;99.90
1405;DHT22;697;51.114;6.542;2023-11-21T02:00:37;10.00;99.90
1405;DHT22;697;51.114;6.542;2023-11-21T02:03:04;10.00;99.90
1405;DHT22;697;51.114;6.542;2023-11-21T02:05:32;10.00;99.90
1405;DHT22;697;51.114;6.542;2023-11-21T02:07:59;10.00;99.90
1405;DHT22;697;51.114;6.542;2023-11-21T02:10:26;10.00;99.90
1405;DHT22;697;51.114;6.542;2023-11-21T02:12:53;10.00;99.90
1405;DHT22;697;51.114;6.542;2023-11-21T02:15:21;10.00;99.90
1405;DHT22;697;51.114;6.542;2023-11-21T02:17:49;10.00;99.90
1405;DHT22;697;51.114;6.542;2023-11-21T02:20:17;10.00;99.90
1405;DHT22;697;51.114;6.542;2023-11-21T02:22:49;10.10;99.90
1405;DHT22;697;51.114;6.542;2023-11-21T02:25:17;10.10;99.90
1405;DHT22;697;51.114;6.542;2023-11-21T02:27:44;10.10;99.90
1405;DHT22;697;51.114;6.542;2023-11-21T02:30:14;10.10;99.90
1405;DHT22;697;51.114;6.542;2023-11-21T02:32:41;10.10;99.90
1405;DHT22;697;51.114;6.542;2023-11-21T02:35:08;10.20;99.90
1405;DHT22;697;51.114;6.542;2023-11-21T02:37:37;10.20;99.90
1405;DHT22;697;51.114;6.542;2023-11-21T02:40:08;10.20;99.90
1405;DHT22;697;51.114;6.542;2023-11-21T02:42:35;10.20;99.90
1405;DHT22;697;51.114;6.542;2023-11-21T02:45:02;10.30;99.90
1405;DHT22;697;51.114;6.542;2023-11-21T02:47:31;10.30;99.90
1405;DHT22;697;51.114;6.542;2023-11-21T02:49:57;10.30;99.90
1405;DHT22;697;51.114;6.542;2023-11-21T02:52:24;10.30;99.90
1405;DHT22;697;51.114;6.542;2023-11-21T02:54:51;10.30;99.90
1405;DHT22;697;51.114;6.542;2023-11-21T02:57:19;10.30;99.90
1405;DHT22;697;51.114;6.542;2023-11-21T02:59:46;10.40;99.90
1405;DHT22;697;51.114;6.542;2023-11-21T03:02:13;10.40;99.90
1405;DHT22;697;51.114;6.542;2023-11-21T03:04:41;10.40;99.90
1405;DHT22;697;51.114;6.542;2023-11-21T03:07:08;10.40;99.90
1405;DHT22;697;51.114;6.542;2023-11-21T03:09:35;10.30;99.90
1405;DHT22;697;51.114;6.542;2023-11-21T03:12:02;10.40;99.90
1405;DHT22;697;51.114;6.542;2023-11-21T03:14:30;10.40;99.90
1405;DHT22;697;51.114;6.542;2023-11-21T03:16:57;10.40;99.90
1405;DHT22;697;51.114;6.542;2023-11-21T03:19:24;10.40;99.90
1405;DHT22;697;51.114;6.542;2023-11-21T03:21:51;10.50;99.90
1405;DHT22;697;51.114;6.542;2023-11-21T03:24:19;10.50;99.90
1405;DHT22;697;51.114;6.542;2023-11-21T03:26:46;10.40;99.90
1405;DHT22;697;51.114;6.542;2023-11-21T03:29:13;10.40;99.90
1405;DHT22;697;51.114;6.542;2023-11-21T03:31:41;10.40;99.90
1405;DHT22;697;51.114;6.542;2023-11-21T03:34:14;10.40;99.90
1405;DHT22;697;51.114;6.542;2023-11-21T03:36:41;10.40;99.90
1405;DHT22;697;51.114;6.542;2023-11-21T03:39:08;10.40;99.90
1405;DHT22;697;51.114;6.542;2023-11-21T03:41:35;10.40;99.90
1405;DHT22;697;51.114;6.542;2023-11-21T03:44:01;10.40;99.90
1405;DHT22;697;51.114;6.542;2023-11-21T03:46:28;10.40;99.90
1405;DHT22;697;51.114;6.542;2023-11-21T03:48:57;10.30;99.90
1405;DHT22;697;51.114;6.542;2023-11-21T03:51:24;10.40;99.90
1405;DHT22;697;51.114;6.542;2023-11-21T03:53:51;10.40;99.90
1405;DHT22;697;51.114;6.542;2023-11-21T03:56:18;10.40;99.90
1405;DHT22;697;51.114;6.542;2023-11-21T03:58:47;10.40;99.90
1405;DHT22;697;51.114;6.542;2023-11-21T04:01:20;10.40;99.90
1405;DHT22;697;51.114;6.542;2023-11-21T04:03:48;10.40;99.90
1405;DHT22;697;51.114;6.542;2023-11-21T04:06:16;10.40;99.90
1405;DHT22;697;51.114;6.542;2023-11-21T04:08:44;10.40;99.90
1405;DHT22;697;51.114;6.542;2023-11-21T04:11:11;10.40;99.90
1405;DHT22;697;51.114;6.542;2023-11-21T04:13:38;10.40;99.90
1405;DHT22;697;51.114;6.542;2023-11-21T04:16:06;10.40;99.90
1405;DHT22;697;51.114;6.542;2023-11-21T04:18:33;10.40;99.90
1405;DHT22;697;51.114;6.542;2023-11-21T04:21:00;10.40;99.90
1405;DHT22;697;51.114;6.542;2023-11-21T04:23:29;10.30;99.90
1405;DHT22;697;51.114;6.542;2023-11-21T04:25:57;10.40;99.90
1405;DHT22;697;51.114;6.542;2023-11-21T04:28:24;10.40;99.90
1405;DHT22;697;51.114;6.542;2023-11-21T04:30:51;10.40;99.90
1405;DHT22;697;51.114;6.542;2023-11-21T04:33:19;10.30;99.90
1405;DHT22;697;51.114;6.542;2023-11-21T04:35:47;10.30;99.90
1405;DHT22;697;51.114;6.542;2023-11-21T04:38:13;10.30;99.90
1405;DHT22;697;51.114;6.542;2023-11-21T04:40:42;10.30;99.90
1405;DHT22;697;51.114;6.542;2023-11-21T04:43:08;10.30;99.90
1405;DHT22;697;51.114;6.542;2023-11-21T04:45:36;10.30;99.90
1405;DHT22;697;51.114;6.542;2023-11-21T04:48:03;10.30;99.90
1405;DHT22;697;51.114;6.542;2023-11-21T04:50:30;10.30;99.90
1405;DHT22;697;51.114;6.542;2023-11-21T04:52:57;10.30;99.90
1405;DHT22;697;51.114;6.542;2023-11-21T04:55:24;10.30;99.90
1405;DHT22;697;51.114;6.542;2023-11-21T04:57:55;10.30;99.90
1405;DHT22;697;51.114;6.542;2023-11-21T05:00:21;10.30;99.90
1405;DHT22;697;51.114;6.542;2023-11-21T05:02:48;10.20;99.90
1405;DHT22;697;51.114;6.542;2023-11-21T05:05:15;10.20;99.90
1405;DHT22;697;51.114;6.542;2023-11-21T05:07:42;10.20;99.90
1405;DHT22;697;51.114;6.542;2023-11-21T05:10:09;10.20;99.90
1405;DHT22;697;51.114;6.542;2023-11-21T05:12:37;10.20;99.90
1405;DHT22;697;51.114;6.542;2023-11-21T05:15:07;10.20;99.90
1405;DHT22;697;51.114;6.542;2023-11-21T05:17:35;10.10;99.90
1405;DHT22;697;51.114;6.542;2023-11-21T05:20:03;10.10;99.90
1405;DHT22;697;51.114;6.542;2023-11-21T05:22:34;10.10;99.90
1405;DHT22;697;51.114;6.542;2023-11-21T05:25:01;10.10;99.90
1405;DHT22;697;51.114;6.542;2023-11-21T05:27:29;10.10;99.90
1405;DHT22;697;51.114;6.542;2023-11-21T05:29:56;10.10;99.90
1405;DHT22;697;51.114;6.542;2023-11-21T05:32:24;10.10;99.90
1405;DHT22;697;51.114;6.542;2023-11-21T05:34:52;10.10;99.90
1405;DHT22;697;51.114;6.542;2023-11-21T05:37:19;10.10;99.90
1405;DHT22;697;51.114;6.542;2023-11-21T05:39:46;10.20;99.90
1405;DHT22;697;51.114;6.542;2023-11-21T05:42:12;10.10;99.90
1405;DHT22;697;51.114;6.542;2023-11-21T05:44:42;10.20;99.90
1405;DHT22;697;51.114;6.542;2023-11-21T05:47:09;10.20;99.90
1405;DHT22;697;51.114;6.542;2023-11-21T05:49:37;10.20;99.90
1405;DHT22;697;51.114;6.542;2023-11-21T05:52:04;10.20;99.90
1405;DHT22;697;51.114;6.542;2023-11-21T05:54:32;10.20;99.90
1405;DHT22;697;51.114;6.542;2023-11-21T05:56:59;10.20;99.90
1405;DHT22;697;51.114;6.542;2023-11-21T05:59:26;10.20;99.90
1405;DHT22;697;51.114;6.542;2023-11-21T06:01:53;10.20;99.90
1405;DHT22;697;51.114;6.542;2023-11-21T06:04:20;10.20;99.90
1405;DHT22;697;51.114;6.542;2023-11-21T06:06:51;10.20;99.90
1405;DHT22;697;51.114;6.542;2023-11-21T06:09:18;10.20;99.90
1405;DHT22;697;51.114;6.542;2023-11-21T06:11:44;10.20;99.90
1405;DHT22;697;51.114;6.542;2023-11-21T06:14:11;10.20;99.90
1405;DHT22;697;51.114;6.542;2023-11-21T06:16:38;10.20;99.90
1405;DHT22;697;51.114;6.542;2023-11-21T06:19:06;10.20;99.90
1405;DHT22;697;51.114;6.542;2023-11-21T06:21:33;10.20;99.90
1405;DHT22;697;51.114;6.542;2023-11-21T06:24:02;10.30;99.90
1405;DHT22;697;51.114;6.542;2023-11-21T06:26:29;10.20;99.90
1405;DHT22;697;51.114;6.542;2023-11-21T06:28:57;10.30;99.90
1405;DHT22;697;51.114;6.542;2023-11-21T06:31:24;10.30;99.90
1405;DHT22;697;51.114;6.542;2023-11-21T06:33:51;10.20;99.90
1405;DHT22;697;51.114;6.542;2023-11-21T06:36:18;10.20;99.90
1405;DHT22;697;51.114;6.542;2023-11-21T06:38:45;10.20;99.90
1405;DHT22;697;51.114;6.542;2023-11-21T06:41:13;10.20;99.90
1405;DHT22;697;51.114;6.542;2023-11-21T06:43:40;10.20;99.90
1405;DHT22;697;51.114;6.542;2023-11-21T06:46:10;10.20;99.90
1405;DHT22;697;51.114;6.542;2023-11-21T06:48:40;10.10;99.90
1405;DHT22;697;51.114;6.542;2023-11-21T06:51:07;10.10;99.90
1405;DHT22;697;51.114;6.542;2023-11-21T06:53:33;10.10;99.90
1405;DHT22;697;51.114;6.542;2023-11-21T06:56:00;10.10;99.90
1405;DHT22;697;51.114;6.542;2023-11-21T06:58:28;10.10;99.90
1405;DHT22;697;51.114;6.542;2023-11-21T07:00:55;10.10;99.90
1405;DHT22;697;51.114;6.542;2023-11-21T07:03:23;10.10;99.90
1405;DHT22;697;51.114;6.542;2023-11-21T07:05:51;10.10;99.90
1405;DHT22;697;51.114;6.542;2023-11-21T07:08:18;10.10;99.90
1405;DHT22;697;51.114;6.542;2023-11-21T07:10:45;10.10;99.90
1405;DHT22;697;51.114;6.542;2023-11-21T07:13:12;10.20;99.90
1405;DHT22;697;51.114;6.542;2023-11-21T07:15:41;10.20;99.90
1405;DHT22;697;51.114;6.542;2023-11-21T07:18:09;10.20;99.90
1405;DHT22;697;51.114;6.542;2023-11-21T07:20:37;10.20;99.90
1405;DHT22;697;51.114;6.542;2023-11-21T07:23:03;10.20;99.90
1405;DHT22;697;51.114;6.542;2023-11-21T07:25:31;10.20;99.90
1405;DHT22;697;51.114;6.542;2023-11-21T07:27:59;10.20;99.90
1405;DHT22;697;51.114;6.542;2023-11-21T07:30:25;10.30;99.90
1405;DHT22;697;51.114;6.542;2023-11-21T07:32:54;10.30;99.90
1405;DHT22;697;51.114;6.542;2023-11-21T07:35:21;10.30;99.90
1405;DHT22;697;51.114;6.542;2023-11-21T07:37:48;10.30;99.90
1405;DHT22;697;51.114;6.542;2023-11-21T07:40:15;10.30;99.90
1405;DHT22;697;51.114;6.542;2023-11-21T07:42:42;10.30;99.90
1405;DHT22;697;51.114;6.542;2023-11-21T07:45:09;10.30;99.90
1405;DHT22;697;51.114;6.542;2023-11-21T07:47:36;10.30;99.90
1405;DHT22;697;51.114;6.542;2023-11-21T07:50:07;10.30;99.90
1405;DHT22;697;51.114;6.542;2023-11-21T07:52:34;10.30;99.90
1405;DHT22;697;51.114;6.542;2023-11-21T07:55:01;10.30;99.90
1405;DHT22;697;51.114;6.542;2023-11-21T07:57:27;10.30;99.90
1405;DHT22;697;51.114;6.542;2023-11-21T07:59:54;10.30;99.90
1405;DHT22;697;51.114;6.542;2023-11-21T08:02:21;10.30;99.90
1405;DHT22;697;51.114;6.542;2023-11-21T08:04:48;10.30;99.90
1405;DHT22;697;51.114;6.542;2023-11-21T08:07:17;10.30;99.90
1405;DHT22;697;51.114;6.542;2023-11-21T08:09:44;10.30;99.90
1405;DHT22;697;51.114;6.542;2023-11-21T08:12:12;10.30;99.90
1405;DHT22;697;51.114;6.542;2023-11-21T08:14:40;10.30;99.90
1405;DHT22;697;51.114;6.542;2023-11-21T08:17:07;10.30;99.90
1405;DHT22;697;51.114;6.542;2023-11-21T08:19:35;10.30;99.90
1405;DHT22;697;51.114;6.542;2023-11-21T08:22:02;10.30;99.90
1405;DHT22;697;51.114;6.542;2023-11-21T08:24:31;10.30;99.90
1405;DHT22;697;51.114;6.542;2023-11-21T08:26:57;10.40;99.90
1405;DHT22;697;51.114;6.542;2023-11-21T08:29:24;10.40;99.90
1405;DHT22;697;51.114;6.542;2023-11-21T08:31:52;10.50;99.90
1405;DHT22;697;51.114;6.542;2023-11-21T08:34:19;10.50;99.90
1405;DHT22;697;51.114;6.542;2023-11-21T08:36:45;10.60;99.90
1405;DHT22;697;51.114;6.542;2023-11-21T08:39:12;10.60;99.90
1405;DHT22;697;51.114;6.542;2023-11-21T08:41:43;10.70;99.90
1405;DHT22;697;51.114;6.542;2023-11-21T08:44:10;10.80;99.90
1405;DHT22;697;51.114;6.542;2023-11-21T08:46:37;10.80;99.90
1405;DHT22;697;51.114;6.542;2023-11-21T08:49:05;10.80;99.90
1405;DHT22;697;51.114;6.542;2023-11-21T08:51:31;10.90;99.90
1405;DHT22;697;51.114;6.542;2023-11-21T08:53:58;10.90;99.90
1405;DHT22;697;51.114;6.542;2023-11-21T08:56:27;11.00;99.90
1405;DHT22;697;51.114;6.542;2023-11-21T08:58:56;11.00;99.90
1405;DHT22;697;51.114;6.542;2023-11-21T09:01:22;11.00;99.90
1405;DHT22;697;51.114;6.542;2023-11-21T09:03:50;11.00;99.90
1405;DHT22;697;51.114;6.542;2023-11-21T09:06:17;11.00;99.90
1405;DHT22;697;51.114;6.542;2023-11-21T09:08:44;11.10;99.90
1405;DHT22;697;51.114;6.542;2023-11-21T09:11:11;11.20;99.90
1405;DHT22;697;51.114;6.542;2023-11-21T09:13:39;11.30;99.90
1405;DHT22;697;51.114;6.542;2023-11-21T09:16:07;11.40;99.90
1405;DHT22;697;51.114;6.542;2023-11-21T09:18:34;11.50;99.90
1405;DHT22;697;51.114;6.542;2023-11-21T09:21:01;11.50;99.90
1405;DHT22;697;51.114;6.542;2023-11-21T09:23:29;11.60;99.90
1405;DHT22;697;51.114;6.542;2023-11-21T09:25:56;11.60;99.90
1405;DHT22;697;51.114;6.542;2023-11-21T09:28:25;11.70;99.90
1405;DHT22;697;51.114;6.542;2023-11-21T09:30:52;11.70;99.90
1405;DHT22;697;51.114;6.542;2023-11-21T09:33:20;11.70;99.90
1405;DHT22;697;51.114;6.542;2023-11-21T09:35:47;11.70;99.90
1405;DHT22;697;51.114;6.542;2023-11-21T09:38:16;11.80;99.90
1405;DHT22;697;51.114;6.542;2023-11-21T09:40:43;11.80;99.90
1405;DHT22;697;51.114;6.542;2023-11-21T09:43:15;11.80;99.90
1405;DHT22;697;51.114;6.542;2023-11-21T09:45:45;11.80;99.90
1405;DHT22;697;51.114;6.542;2023-11-21T09:48:13;11.80;99.90
1405;DHT22;697;51.114;6.542;2023-11-21T09:50:42;11.80;99.90
1405;DHT22;697;51.114;6.542;2023-11-21T09:53:13;11.80;99.90
1405;DHT22;697;51.114;6.542;2023-11-21T09:55:43;11.90;99.90
1405;DHT22;697;51.114;6.542;2023-11-21T09:58:10;11.90;99.90
1405;DHT22;697;51.114;6.542;2023-11-21T10:00:40;12.00;99.90
1405;DHT22;697;51.114;6.542;2023-11-21T10:03:07;12.10;99.90
1405;DHT22;697;51.114;6.542;2023-11-21T10:05:34;12.20;99.90
1405;DHT22;697;51.114;6.542;2023-11-21T10:08:05;12.20;99.90
1405;DHT22;697;51.114;6.542;2023-11-21T10:10:33;12.30;99.90
1405;DHT22;697;51.114;6.542;2023-11-21T10:13:03;12.30;99.90
1405;DHT22;697;51.114;6.542;2023-11-21T10:15:33;12.40;99.90
1405;DHT22;697;51.114;6.542;2023-11-21T10:18:02;12.40;99.90
1405;DHT22;697;51.114;6.542;2023-11-21T10:20:30;12.40;99.90
1405;DHT22;697;51.114;6.542;2023-11-21T10:22:59;12.40;99.90
1405;DHT22;697;51.114;6.542;2023-11-21T10:25:28;12.40;99.90
1405;DHT22;697;51.114;6.542;2023-11-21T10:27:58;12.40;99.90
1405;DHT22;697;51.114;6.542;2023-11-21T10:30:28;12.40;99.90
1405;DHT22;697;51.114;6.542;2023-11-21T10:32:59;12.50;99.90
1405;DHT22;697;51.114;6.542;2023-11-21T10:35:48;12.50;99.90
1405;DHT22;697;51.114;6.542;2023-11-21T10:38:16;12.50;99.90
1405;DHT22;697;51.114;6.542;2023-11-21T10:40:45;12.40;99.90
1405;DHT22;697;51.114;6.542;2023-11-21T10:43:12;12.50;99.90
1405;DHT22;697;51.114;6.542;2023-11-21T10:45:40;12.40;99.90
1405;DHT22;697;51.114;6.542;2023-11-21T10:48:08;12.40;99.90
1405;DHT22;697;51.114;6.542;2023-11-21T10:50:36;12.30;99.90
1405;DHT22;697;51.114;6.542;2023-11-21T10:53:04;12.30;99.90
1405;DHT22;697;51.114;6.542;2023-11-21T10:55:32;12.30;99.90
1405;DHT22;697;51.114;6.542;2023-11-21T10:58:01;12.40;99.90
1405;DHT22;697;51.114;6.542;2023-11-21T11:00:31;12.40;99.90
1405;DHT22;697;51.114;6.542;2023-11-21T11:02:58;12.40;99.90
1405;DHT22;697;51.114;6.542;2023-11-21T11:05:27;12.40;99.90
1405;DHT22;697;51.114;6.542;2023-11-21T11:07:58;12.40;99.90
1405;DHT22;697;51.114;6.542;2023-11-21T11:10:29;12.50;99.90
1405;DHT22;697;51.114;6.542;2023-11-21T11:12:56;12.50;99.90
1405;DHT22;697;51.114;6.542;2023-11-21T11:15:26;12.50;99.90
1405;DHT22;697;51.114;6.542;2023-11-21T11:17:53;12.50;99.90
1405;DHT22;697;51.114;6.542;2023-11-21T11:20:24;12.60;99.90
1405;DHT22;697;51.114;6.542;2023-11-21T11:23:04;12.60;99.90
1405;DHT22;697;51.114;6.542;2023-11-21T11:25:47;12.70;99.90
1405;DHT22;697;51.114;6.542;2023-11-21T11:28:21;12.70;99.90
1405;DHT22;697;51.114;6.542;2023-11-21T11:31:04;12.80;99.90
1405;DHT22;697;51.114;6.542;2023-11-21T11:33:36;12.80;99.90
1405;DHT22;697;51.114;6.542;2023-11-21T11:36:08;12.80;99.90
1405;DHT22;697;51.114;6.542;2023-11-21T11:38:37;12.80;99.90
1405;DHT22;697;51.114;6.542;2023-11-21T11:41:05;12.80;99.90
1405;DHT22;697;51.114;6.542;2023-11-21T11:43:32;12.90;99.90
1405;DHT22;697;51.114;6.542;2023-11-21T11:46:07;12.80;99.90
1405;DHT22;697;51.114;6.542;2023-11-21T11:48:37;12.80;99.90
1405;DHT22;697;51.114;6.542;2023-11-21T11:51:06;12.80;99.90
1405;DHT22;697;51.114;6.542;2023-11-21T11:53:39;12.80;99.90
1405;DHT22;697;51.114;6.542;2023-11-21T11:56:23;12.90;99.90
1405;DHT22;697;51.114;6.542;2023-11-21T11:58:54;13.00;99.90
1405;DHT22;697;51.114;6.542;2023-11-21T12:01:24;13.10;99.90
1405;DHT22;697;51.114;6.542;2023-11-21T12:04:25;13.10;99.90
1405;DHT22;697;51.114;6.542;2023-11-21T12:07:00;13.30;99.90
1405;DHT22;697;51.114;6.542;2023-11-21T12:09:29;13.40;99.90
1405;DHT22;697;51.114;6.542;2023-11-21T12:11:57;13.50;99.90
1405;DHT22;697;51.114;6.542;2023-11-21T12:14:24;13.70;99.90
1405;DHT22;697;51.114;6.542;2023-11-21T12:16:52;13.90;99.90
1405;DHT22;697;51.114;6.542;2023-11-21T12:19:20;14.10;99.90
1405;DHT22;697;51.114;6.542;2023-11-21T12:21:48;14.10;99.90
1405;DHT22;697;51.114;6.542;2023-11-21T12:24:16;14.20;99.90
1405;DHT22;697;51.114;6.542;2023-11-21T12:26:43;14.20;99.90
1405;DHT22;697;51.114;6.542;2023-11-21T12:29:10;14.20;99.90
1405;DHT22;697;51.114;6.542;2023-11-21T12:31:37;14.30;99.90
1405;DHT22;697;51.114;6.542;2023-11-21T12:34:06;14.30;99.90
1405;DHT22;697;51.114;6.542;2023-11-21T12:36:34;14.30;99.90
1405;DHT22;697;51.114;6.542;2023-11-21T12:39:01;14.40;99.90
1405;DHT22;697;51.114;6.542;2023-11-21T12:41:29;14.40;99.90
1405;DHT22;697;51.114;6.542;2023-11-21T12:43:56;14.40;99.90
1405;DHT22;697;51.114;6.542;2023-11-21T12:46:23;14.40;99.90
1405;DHT22;697;51.114;6.542;2023-11-21T12:48:54;14.40;99.90
1405;DHT22;697;51.114;6.542;2023-11-21T12:51:23;14.40;99.90
1405;DHT22;697;51.114;6.542;2023-11-21T12:53:50;14.30;99.90
1405;DHT22;697;51.114;6.542;2023-11-21T12:56:18;14.30;99.90
1405;DHT22;697;51.114;6.542;2023-11-21T12:58:48;14.30;99.90
1405;DHT22;697;51.114;6.542;2023-11-21T13:01:18;14.30;99.90
1405;DHT22;697;51.114;6.542;2023-11-21T13:03:47;14.20;99.90
1405;DHT22;697;51.114;6.542;2023-11-21T13:06:17;14.20;99.90
1405;DHT22;697;51.114;6.542;2023-11-21T13:08:45;14.20;99.90
1405;DHT22;697;51.114;6.542;2023-11-21T13:11:14;14.20;99.90
1405;DHT22;697;51.114;6.542;2023-11-21T13:13:41;14.20;99.90
1405;DHT22;697;51.114;6.542;2023-11-21T13:16:09;14.20;99.90
1405;DHT22;697;51.114;6.542;2023-11-21T13:18:36;14.10;99.90
1405;DHT22;697;51.114;6.542;2023-11-21T13:21:04;14.10;99.90
1405;DHT22;697;51.114;6.542;2023-11-21T13:23:36;14.10;99.90
1405;DHT22;697;51.114;6.542;2023-11-21T13:26:04;14.00;99.90
1405;DHT22;697;51.114;6.542;2023-11-21T13:28:32;14.00;99.90
1405;DHT22;697;51.114;6.542;2023-11-21T13:31:00;14.00;99.90
1405;DHT22;697;51.114;6.542;2023-11-21T13:33:34;13.90;99.90
1405;DHT22;697;51.114;6.542;2023-11-21T13:36:04;13.80;99.90
1405;DHT22;697;51.114;6.542;2023-11-21T13:38:33;13.70;99.90
1405;DHT22;697;51.114;6.542;2023-11-21T13:41:01;13.60;99.90
1405;DHT22;697;51.114;6.542;2023-11-21T13:43:34;13.60;99.90
1405;DHT22;697;51.114;6.542;2023-11-21T13:46:02;13.50;99.90
1405;DHT22;697;51.114;6.542;2023-11-21T13:48:29;13.50;99.90
1405;DHT22;697;51.114;6.542;2023-11-21T13:51:06;13.50;99.90
1405;DHT22;697;51.114;6.542;2023-11-21T13:53:42;13.60;99.90
1405;DHT22;697;51.114;6.542;2023-11-21T13:56:14;13.60;99.90
1405;DHT22;697;51.114;6.542;2023-11-21T13:58:50;13.60;99.90
1405;DHT22;697;51.114;6.542;2023-11-21T14:01:17;13.70;99.90
1405;DHT22;697;51.114;6.542;2023-11-21T14:04:03;13.70;99.90
1405;DHT22;697;51.114;6.542;2023-11-21T14:06:45;13.70;99.90
1405;DHT22;697;51.114;6.542;2023-11-21T14:09:15;13.70;99.90
1405;DHT22;697;51.114;6.542;2023-11-21T14:11:49;13.70;99.90
1405;DHT22;697;51.114;6.542;2023-11-21T14:14:19;13.60;99.90
1405;DHT22;697;51.114;6.542;2023-11-21T14:16:46;13.60;99.90
1405;DHT22;697;51.114;6.542;2023-11-21T14:19:13;13.60;99.90
1405;DHT22;697;51.114;6.542;2023-11-21T14:21:42;13.50;99.90
1405;DHT22;697;51.114;6.542;2023-11-21T14:24:09;13.50;99.90
1405;DHT22;697;51.114;6.542;2023-11-21T14:26:39;13.40;99.90
1405;DHT22;697;51.114;6.542;2023-11-21T14:29:06;13.40;99.90
1405;DHT22;697;51.114;6.542;2023-11-21T14:31:36;13.30;99.90
1405;DHT22;697;51.114;6.542;2023-11-21T14:34:03;13.30;99.90
1405;DHT22;697;51.114;6.542;2023-11-21T14:36:31;13.30;99.90
1405;DHT22;697;51.114;6.542;2023-11-21T14:38:58;13.30;99.90
1405;DHT22;697;51.114;6.542;2023-11-21T14:41:25;13.20;99.90
1405;DHT22;697;51.114;6.542;2023-11-21T14:43:53;13.20;99.90
1405;DHT22;697;51.114;6.542;2023-11-21T14:46:20;13.20;99.90
1405;DHT22;697;51.114;6.542;2023-11-21T14:48:48;13.10;99.90
1405;DHT22;697;51.114;6.542;2023-11-21T14:51:24;13.10;99.90
1405;DHT22;697;51.114;6.542;2023-11-21T14:53:57;13.10;99.90
1405;DHT22;697;51.114;6.542;2023-11-21T14:56:31;13.00;99.90
1405;DHT22;697;51.114;6.542;2023-11-21T14:59:00;13.00;99.90
1405;DHT22;697;51.114;6.542;2023-11-21T15:01:31;13.00;99.90
1405;DHT22;697;51.114;6.542;2023-11-21T15:04:11;12.90;99.90
1405;DHT22;697;51.114;6.542;2023-11-21T15:06:48;12.90;99.90
1405;DHT22;697;51.114;6.542;2023-11-21T15:09:14;12.80;99.90
1405;DHT22;697;51.114;6.542;2023-11-21T15:12:01;12.80;99.90
1405;DHT22;697;51.114;6.542;2023-11-21T15:14:38;12.80;99.90
1405;DHT22;697;51.114;6.542;2023-11-21T15:17:03;12.70;99.90
1405;DHT22;697;51.114;6.542;2023-11-21T15:19:34;12.70;99.90
1405;DHT22;697;51.114;6.542;2023-11-21T15:22:01;12.60;99.90
1405;DHT22;697;51.114;6.542;2023-11-21T15:24:28;12.50;99.90
1405;DHT22;697;51.114;6.542;2023-11-21T15:26:55;12.50;99.90
1405;DHT22;697;51.114;6.542;2023-11-21T15:29:21;12.50;99.90
1405;DHT22;697;51.114;6.542;2023-11-21T15:31:48;12.50;99.90
1405;DHT22;697;51.114;6.542;2023-11-21T15:34:15;12.50;99.90
1405;DHT22;697;51.114;6.542;2023-11-21T15:36:43;12.50;99.90
1405;DHT22;697;51.114;6.542;2023-11-21T15:39:10;12.40;99.90
1405;DHT22;697;51.114;6.542;2023-11-21T15:41:38;12.40;99.90
1405;DHT22;697;51.114;6.542;2023-11-21T15:44:05;12.40;99.90
1405;DHT22;697;51.114;6.542;2023-11-21T15:46:35;12.40;99.90
1405;DHT22;697;51.114;6.542;2023-11-21T15:49:03;12.40;99.90
1405;DHT22;697;51.114;6.542;2023-11-21T15:51:38;12.40;99.90
1405;DHT22;697;51.114;6.542;2023-11-21T15:54:06;12.40;99.90
1405;DHT22;697;51.114;6.542;2023-11-21T15:56:34;12.40;99.90
1405;DHT22;697;51.114;6.542;2023-11-21T15:59:02;12.30;99.90
1405;DHT22;697;51.114;6.542;2023-11-21T16:01:30;12.30;99.90
1405;DHT22;697;51.114;6.542;2023-11-21T16:03:57;12.30;99.90
1405;DHT22;697;51.114;6.542;2023-11-21T16:06:26;12.40;99.90
1405;DHT22;697;51.114;6.542;2023-11-21T16:08:54;12.30;99.90
1405;DHT22;697;51.114;6.542;2023-11-21T16:11:22;12.30;99.90
1405;DHT22;697;51.114;6.542;2023-11-21T16:13:49;12.30;99.90
1405;DHT22;697;51.114;6.542;2023-11-21T16:16:20;12.20;99.90
1405;DHT22;697;51.114;6.542;2023-11-21T16:18:54;12.20;99.90
1405;DHT22;697;51.114;6.542;2023-11-21T16:21:21;12.20;99.90
1405;DHT22;697;51.114;6.542;2023-11-21T16:23:48;12.20;99.90
1405;DHT22;697;51.114;6.542;2023-11-21T16:26:15;12.20;99.90